createdAt,value
2023-09-27T00:00:56.137Z,19.30
2023-09-27T00:01:59.749Z,19.30
2023-09-27T00:03:02.636Z,19.29
2023-09-27T00:04:06.924Z,19.29
2023-09-27T00:05:10.221Z,19.29
2023-09-27T00:06:13.678Z,19.28
2023-09-27T00:07:16.637Z,19.28
2023-09-27T00:08:20.468Z,19.27
2023-09-27T00:09:24.117Z,19.26
2023-09-27T00:10:28.229Z,19.26
2023-09-27T00:11:30.437Z,19.26
2023-09-27T00:12:34.182Z,19.26
2023-09-27T00:13:36.341Z,19.25
2023-09-27T00:14:39.453Z,19.24
2023-09-27T00:15:41.632Z,19.23
2023-09-27T00:16:44.816Z,19.22
2023-09-27T00:17:48.218Z,19.20
2023-09-27T00:18:51.501Z,19.18
2023-09-27T00:19:53.733Z,19.15
2023-09-27T00:20:56.885Z,19.13
2023-09-27T00:21:59.029Z,19.10
2023-09-27T00:23:02.218Z,19.08
2023-09-27T00:24:04.727Z,19.06
2023-09-27T00:25:12.781Z,19.04
2023-09-27T00:26:15.049Z,19.03
2023-09-27T00:27:18.246Z,19.01
2023-09-27T00:28:20.394Z,19.00
2023-09-27T00:29:23.557Z,18.99
2023-09-27T00:30:25.718Z,18.98
2023-09-27T00:31:29.126Z,18.98
2023-09-27T00:32:31.620Z,18.97
2023-09-27T00:33:34.853Z,18.96
2023-09-27T00:34:37.055Z,18.95
2023-09-27T00:35:40.169Z,18.94
2023-09-27T00:36:42.367Z,18.92
2023-09-27T00:37:45.453Z,18.90
2023-09-27T00:38:47.613Z,18.88
2023-09-27T00:39:51.027Z,18.86
2023-09-27T00:40:54.622Z,18.84
2023-09-27T00:41:57.885Z,18.81
2023-09-27T00:43:00.010Z,18.80
2023-09-27T00:44:03.231Z,18.78
2023-09-27T00:45:08.239Z,18.76
2023-09-27T00:46:15.231Z,18.74
2023-09-27T00:47:17.749Z,18.73
2023-09-27T00:48:21.560Z,18.72
2023-09-27T00:49:23.766Z,18.70
2023-09-27T00:50:26.958Z,18.70
2023-09-27T00:51:29.834Z,18.70
2023-09-27T00:52:33.294Z,18.69
2023-09-27T00:53:36.328Z,18.68
2023-09-27T00:54:39.427Z,18.68
2023-09-27T00:55:42.432Z,18.67
2023-09-27T00:56:48.820Z,18.66
2023-09-27T00:57:52.021Z,18.65
2023-09-27T00:58:56.593Z,18.65
2023-09-27T00:59:59.651Z,18.65
2023-09-27T01:01:03.342Z,18.64
2023-09-27T01:02:07.346Z,18.64
2023-09-27T01:03:10.767Z,18.63
2023-09-27T01:04:14.639Z,18.62
2023-09-27T01:05:19.626Z,18.61
2023-09-27T01:06:22.113Z,18.59
2023-09-27T01:07:25.025Z,18.57
2023-09-27T01:08:28.240Z,18.55
2023-09-27T01:09:32.942Z,18.53
2023-09-27T01:10:36.718Z,18.51
2023-09-27T01:11:39.840Z,18.49
2023-09-27T01:12:44.534Z,18.47
2023-09-27T01:13:47.027Z,18.46
2023-09-27T01:14:51.966Z,18.44
2023-09-27T01:15:54.152Z,18.43
2023-09-27T01:16:57.361Z,18.41
2023-09-27T01:18:00.985Z,18.40
2023-09-27T01:19:04.195Z,18.40
2023-09-27T01:20:07.727Z,18.39
2023-09-27T01:21:11.070Z,18.38
2023-09-27T01:22:13.226Z,18.37
2023-09-27T01:23:17.804Z,18.36
2023-09-27T01:24:20.193Z,18.34
2023-09-27T01:25:23.518Z,18.33
2023-09-27T01:26:27.034Z,18.32
2023-09-27T01:27:30.603Z,18.31
2023-09-27T01:28:33.096Z,18.29
2023-09-27T01:29:36.253Z,18.28
2023-09-27T01:30:39.302Z,18.26
2023-09-27T01:31:42.638Z,18.25
2023-09-27T01:32:44.909Z,18.23
2023-09-27T01:33:48.121Z,18.22
2023-09-27T01:34:50.300Z,18.22
2023-09-27T01:35:55.282Z,18.21
2023-09-27T01:36:58.972Z,18.22
2023-09-27T01:38:02.479Z,18.22
2023-09-27T01:39:08.269Z,18.22
2023-09-27T01:40:15.890Z,18.21
2023-09-27T01:41:19.253Z,18.21
2023-09-27T01:42:22.423Z,18.22
2023-09-27T01:43:24.666Z,18.21
2023-09-27T01:44:27.891Z,18.21
2023-09-27T01:45:31.344Z,18.21
2023-09-27T01:46:34.497Z,18.22
2023-09-27T01:47:36.686Z,18.22
2023-09-27T01:48:40.669Z,18.23
2023-09-27T01:49:43.282Z,18.24
2023-09-27T01:50:46.600Z,18.24
2023-09-27T01:51:50.291Z,18.25
2023-09-27T01:52:53.514Z,18.26
2023-09-27T01:53:55.701Z,18.26
2023-09-27T01:55:00.276Z,18.27
2023-09-27T01:56:03.822Z,18.28
2023-09-27T01:57:07.003Z,18.28
2023-09-27T01:58:09.334Z,18.29
2023-09-27T01:59:12.592Z,18.30
2023-09-27T02:00:16.344Z,18.30
2023-09-27T02:01:19.556Z,18.30
2023-09-27T02:02:21.798Z,18.29
2023-09-27T02:03:25.121Z,18.29
2023-09-27T02:04:27.316Z,18.28
2023-09-27T02:05:31.859Z,18.27
2023-09-27T02:06:34.163Z,18.27
2023-09-27T02:07:39.354Z,18.26
2023-09-27T02:08:41.570Z,18.25
2023-09-27T02:09:44.735Z,18.24
2023-09-27T02:10:50.788Z,18.24
2023-09-27T02:11:53.909Z,18.25
2023-09-27T02:12:56.108Z,18.26
2023-09-27T02:13:59.422Z,18.26
2023-09-27T02:15:01.709Z,18.26
2023-09-27T02:16:05.011Z,18.26
2023-09-27T02:17:09.101Z,18.26
2023-09-27T02:18:12.889Z,18.25
2023-09-27T02:19:15.139Z,18.23
2023-09-27T02:20:20.207Z,18.22
2023-09-27T02:21:22.482Z,18.20
2023-09-27T02:22:25.615Z,18.19
2023-09-27T02:23:28.480Z,18.17
2023-09-27T02:24:30.742Z,18.15
2023-09-27T02:25:34.020Z,18.13
2023-09-27T02:26:37.541Z,18.12
2023-09-27T02:27:40.644Z,18.11
2023-09-27T02:28:44.371Z,18.11
2023-09-27T02:29:46.525Z,18.11
2023-09-27T02:30:49.642Z,18.12
2023-09-27T02:31:51.855Z,18.13
2023-09-27T02:32:55.172Z,18.13
2023-09-27T02:33:58.033Z,18.14
2023-09-27T02:35:00.546Z,18.14
2023-09-27T02:36:03.692Z,18.14
2023-09-27T02:37:06.273Z,18.13
2023-09-27T02:38:10.317Z,18.11
2023-09-27T02:39:12.597Z,18.10
2023-09-27T02:40:15.869Z,18.08
2023-09-27T02:41:18.054Z,18.07
2023-09-27T02:42:22.631Z,18.05
2023-09-27T02:43:24.869Z,18.04
2023-09-27T02:44:28.536Z,18.03
2023-09-27T02:45:30.706Z,18.02
2023-09-27T02:46:33.959Z,18.00
2023-09-27T02:47:36.718Z,18.00
2023-09-27T02:48:40.012Z,17.99
2023-09-27T02:49:42.220Z,17.99
2023-09-27T02:50:49.949Z,17.99
2023-09-27T02:51:53.206Z,17.98
2023-09-27T02:52:56.409Z,17.96
2023-09-27T02:53:58.639Z,17.94
2023-09-27T02:55:00.872Z,17.92
2023-09-27T02:56:06.357Z,17.91
2023-09-27T02:57:08.728Z,17.90
2023-09-27T02:58:13.254Z,17.89
2023-09-27T02:59:15.501Z,17.87
2023-09-27T03:00:19.921Z,17.85
2023-09-27T03:01:22.490Z,17.84
2023-09-27T03:02:26.048Z,17.83
2023-09-27T03:03:28.982Z,17.82
2023-09-27T03:04:33.057Z,17.80
2023-09-27T03:05:36.393Z,17.79
2023-09-27T03:06:40.882Z,17.77
2023-09-27T03:07:45.924Z,17.76
2023-09-27T03:08:49.474Z,17.75
2023-09-27T03:09:51.836Z,17.75
2023-09-27T03:10:54.980Z,17.73
2023-09-27T03:11:57.109Z,17.72
2023-09-27T03:13:00.185Z,17.70
2023-09-27T03:14:04.884Z,17.68
2023-09-27T03:15:12.689Z,17.67
2023-09-27T03:16:16.421Z,17.66
2023-09-27T03:17:18.586Z,17.65
2023-09-27T03:18:20.806Z,17.64
2023-09-27T03:19:24.211Z,17.64
2023-09-27T03:20:26.513Z,17.63
2023-09-27T03:21:30.832Z,17.63
2023-09-27T03:22:33.037Z,17.63
2023-09-27T03:23:36.242Z,17.62
2023-09-27T03:24:39.603Z,17.61
2023-09-27T03:25:42.805Z,17.61
2023-09-27T03:26:44.941Z,17.61
2023-09-27T03:27:48.811Z,17.60
2023-09-27T03:28:51.941Z,17.60
2023-09-27T03:29:57.091Z,17.59
2023-09-27T03:30:59.227Z,17.58
2023-09-27T03:32:02.482Z,17.58
2023-09-27T03:33:04.929Z,17.57
2023-09-27T03:34:08.085Z,17.56
2023-09-27T03:35:10.692Z,17.56
2023-09-27T03:36:13.978Z,17.55
2023-09-27T03:37:17.093Z,17.54
2023-09-27T03:38:19.251Z,17.54
2023-09-27T03:39:23.615Z,17.53
2023-09-27T03:40:25.847Z,17.52
2023-09-27T03:41:29.043Z,17.51
2023-09-27T03:42:31.333Z,17.51
2023-09-27T03:43:34.552Z,17.50
2023-09-27T03:44:36.977Z,17.51
2023-09-27T03:45:41.522Z,17.51
2023-09-27T03:46:44.878Z,17.51
2023-09-27T03:47:49.336Z,17.52
2023-09-27T03:48:51.942Z,17.52
2023-09-27T03:49:55.270Z,17.52
2023-09-27T03:50:57.512Z,17.53
2023-09-27T03:52:00.620Z,17.54
2023-09-27T03:53:02.868Z,17.54
2023-09-27T03:54:06.515Z,17.54
2023-09-27T03:55:09.249Z,17.54
2023-09-27T03:56:12.386Z,17.54
2023-09-27T03:57:14.526Z,17.54
2023-09-27T03:58:17.725Z,17.53
2023-09-27T03:59:20.227Z,17.53
2023-09-27T04:00:23.650Z,17.54
2023-09-27T04:01:27.320Z,17.54
2023-09-27T04:02:32.371Z,17.54
2023-09-27T04:03:34.735Z,17.54
2023-09-27T04:04:37.874Z,17.54
2023-09-27T04:05:40.221Z,17.54
2023-09-27T04:06:43.755Z,17.55
2023-09-27T04:07:45.922Z,17.55
2023-09-27T04:08:49.056Z,17.55
2023-09-27T04:09:51.273Z,17.55
2023-09-27T04:10:54.426Z,17.55
2023-09-27T04:11:56.973Z,17.55
2023-09-27T04:13:00.113Z,17.55
2023-09-27T04:14:02.456Z,17.55
2023-09-27T04:15:08.041Z,17.54
2023-09-27T04:16:11.252Z,17.54
2023-09-27T04:17:14.812Z,17.54
2023-09-27T04:18:18.088Z,17.54
2023-09-27T04:19:20.397Z,17.55
2023-09-27T04:20:24.186Z,17.57
2023-09-27T04:21:26.438Z,17.57
2023-09-27T04:22:29.789Z,17.57
2023-09-27T04:23:32.020Z,17.57
2023-09-27T04:24:35.161Z,17.57
2023-09-27T04:25:37.347Z,17.57
2023-09-27T04:26:40.534Z,17.57
2023-09-27T04:27:44.403Z,17.57
2023-09-27T04:28:47.627Z,17.58
2023-09-27T04:29:51.884Z,17.58
2023-09-27T04:30:55.072Z,17.59
2023-09-27T04:31:57.955Z,17.59
2023-09-27T04:33:02.513Z,17.60
2023-09-27T04:34:05.799Z,17.60
2023-09-27T04:35:10.818Z,17.59
2023-09-27T04:36:16.891Z,17.58
2023-09-27T04:37:20.000Z,17.57
2023-09-27T04:38:22.590Z,17.56
2023-09-27T04:39:28.471Z,17.55
2023-09-27T04:40:30.658Z,17.55
2023-09-27T04:41:34.414Z,17.54
2023-09-27T04:42:36.674Z,17.54
2023-09-27T04:43:39.826Z,17.53
2023-09-27T04:44:42.088Z,17.53
2023-09-27T04:45:45.380Z,17.52
2023-09-27T04:46:47.602Z,17.53
2023-09-27T04:47:51.105Z,17.53
2023-09-27T04:48:54.839Z,17.52
2023-09-27T04:49:58.165Z,17.53
2023-09-27T04:51:00.730Z,17.54
2023-09-27T04:52:03.924Z,17.54
2023-09-27T04:53:06.425Z,17.54
2023-09-27T04:54:09.580Z,17.54
2023-09-27T04:55:13.905Z,17.54
2023-09-27T04:56:17.271Z,17.54
2023-09-27T04:57:21.013Z,17.54
2023-09-27T04:58:24.302Z,17.53
2023-09-27T04:59:26.583Z,17.53
2023-09-27T05:00:29.991Z,17.52
2023-09-27T05:01:32.261Z,17.54
2023-09-27T05:02:35.603Z,17.56
2023-09-27T05:03:39.060Z,17.57
2023-09-27T05:04:43.635Z,17.60
2023-09-27T05:05:45.787Z,17.61
2023-09-27T05:06:49.757Z,17.64
2023-09-27T05:07:52.079Z,17.66
2023-09-27T05:08:56.001Z,17.67
2023-09-27T05:09:58.204Z,17.68
2023-09-27T05:11:01.364Z,17.69
2023-09-27T05:12:04.625Z,17.71
2023-09-27T05:13:07.773Z,17.72
2023-09-27T05:14:10.113Z,17.73
2023-09-27T05:15:13.308Z,17.74
2023-09-27T05:16:15.988Z,17.75
2023-09-27T05:17:19.280Z,17.76
2023-09-27T05:18:23.646Z,17.77
2023-09-27T05:19:26.898Z,17.78
2023-09-27T05:20:30.542Z,17.79
2023-09-27T05:21:33.666Z,17.81
2023-09-27T05:22:36.080Z,17.83
2023-09-27T05:23:39.304Z,17.85
2023-09-27T05:24:41.525Z,17.87
2023-09-27T05:25:45.212Z,17.89
2023-09-27T05:26:47.488Z,17.90
2023-09-27T05:27:50.679Z,17.91
2023-09-27T05:28:53.049Z,17.92
2023-09-27T05:29:55.598Z,17.93
2023-09-27T05:30:58.855Z,17.94
2023-09-27T05:32:01.248Z,17.96
2023-09-27T05:33:05.537Z,17.96
2023-09-27T05:34:08.335Z,17.97
2023-09-27T05:35:12.159Z,17.98
2023-09-27T05:36:15.982Z,18.00
2023-09-27T05:37:19.148Z,18.02
2023-09-27T05:38:24.554Z,18.03
2023-09-27T05:39:28.006Z,18.06
2023-09-27T05:40:30.240Z,18.08
2023-09-27T05:41:33.510Z,18.10
2023-09-27T05:42:36.710Z,18.11
2023-09-27T05:43:39.934Z,18.15
2023-09-27T05:44:42.095Z,18.18
2023-09-27T05:45:47.511Z,18.20
2023-09-27T05:46:49.796Z,18.21
2023-09-27T05:47:52.140Z,18.22
2023-09-27T05:48:56.033Z,18.24
2023-09-27T05:49:58.668Z,18.26
2023-09-27T05:51:01.037Z,18.28
2023-09-27T05:52:06.805Z,18.31
2023-09-27T05:53:09.109Z,18.33
2023-09-27T05:54:12.374Z,18.35
2023-09-27T05:55:15.695Z,18.36
2023-09-27T05:56:18.942Z,18.38
2023-09-27T05:57:22.804Z,18.41
2023-09-27T05:58:25.005Z,18.42
2023-09-27T05:59:28.196Z,18.43
2023-09-27T06:00:38.828Z,18.45
2023-09-27T06:01:47.674Z,18.47
2023-09-27T06:02:49.896Z,18.50
2023-09-27T06:03:53.195Z,18.52
2023-09-27T06:04:55.415Z,18.53
2023-09-27T06:05:57.789Z,18.57
2023-09-27T06:07:01.029Z,18.58
2023-09-27T06:08:05.019Z,18.59
2023-09-27T06:09:10.465Z,18.61
2023-09-27T06:10:12.686Z,18.63
2023-09-27T06:11:15.859Z,18.64
2023-09-27T06:12:18.087Z,18.65
2023-09-27T06:13:21.348Z,18.66
2023-09-27T06:14:23.667Z,18.66
2023-09-27T06:15:27.415Z,18.67
2023-09-27T06:16:29.754Z,18.69
2023-09-27T06:17:32.251Z,18.70
2023-09-27T06:18:35.525Z,18.71
2023-09-27T06:19:38.807Z,18.74
2023-09-27T06:20:42.391Z,18.74
2023-09-27T06:21:44.600Z,18.76
2023-09-27T06:22:50.038Z,18.78
2023-09-27T06:23:53.860Z,18.82
2023-09-27T06:24:57.045Z,18.84
2023-09-27T06:25:59.252Z,18.85
2023-09-27T06:27:02.548Z,18.86
2023-09-27T06:28:05.575Z,18.88
2023-09-27T06:29:10.295Z,18.90
2023-09-27T06:30:14.000Z,18.91
2023-09-27T06:31:17.213Z,18.92
2023-09-27T06:32:19.668Z,18.95
2023-09-27T06:33:23.010Z,18.97
2023-09-27T06:34:25.380Z,18.98
2023-09-27T06:35:28.705Z,19.00
2023-09-27T06:36:35.696Z,19.03
2023-09-27T06:37:39.052Z,19.07
2023-09-27T06:38:42.467Z,19.11
2023-09-27T06:39:48.450Z,19.15
2023-09-27T06:40:50.666Z,19.18
2023-09-27T06:41:54.097Z,19.22
2023-09-27T06:42:56.913Z,19.26
2023-09-27T06:44:01.731Z,19.30
2023-09-27T06:45:05.278Z,19.34
2023-09-27T06:46:11.764Z,19.39
2023-09-27T06:47:14.243Z,19.43
2023-09-27T06:48:19.772Z,19.47
2023-09-27T06:49:21.948Z,19.51
2023-09-27T06:50:25.249Z,19.54
2023-09-27T06:51:27.915Z,19.57
2023-09-27T06:52:31.392Z,19.60
2023-09-27T06:53:34.246Z,19.63
2023-09-27T06:54:37.717Z,19.66
2023-09-27T06:55:41.289Z,19.70
2023-09-27T06:56:44.724Z,19.74
2023-09-27T06:57:49.001Z,19.78
2023-09-27T06:58:52.700Z,19.83
2023-09-27T06:59:55.052Z,19.87
2023-09-27T07:00:58.279Z,19.89
2023-09-27T07:02:00.709Z,19.93
2023-09-27T07:03:04.307Z,19.96
2023-09-27T07:04:07.342Z,20.00
2023-09-27T07:05:10.171Z,20.04
2023-09-27T07:06:13.444Z,20.08
2023-09-27T07:07:15.636Z,20.12
2023-09-27T07:08:18.991Z,20.16
2023-09-27T07:09:22.075Z,20.19
2023-09-27T07:10:25.754Z,20.22
2023-09-27T07:11:29.377Z,20.25
2023-09-27T07:12:32.622Z,20.28
2023-09-27T07:13:35.601Z,20.31
2023-09-27T07:14:38.859Z,20.34
2023-09-27T07:15:41.196Z,20.36
2023-09-27T07:16:58.524Z,20.39
2023-09-27T07:18:05.259Z,20.45
2023-09-27T07:19:10.330Z,20.48
2023-09-27T07:20:22.358Z,20.50
2023-09-27T07:21:26.423Z,20.56
2023-09-27T07:22:32.392Z,20.60
2023-09-27T07:23:35.624Z,20.65
2023-09-27T07:24:37.836Z,20.69
2023-09-27T07:25:40.102Z,20.70
2023-09-27T07:26:48.342Z,20.73
2023-09-27T07:27:51.268Z,20.76
2023-09-27T07:28:54.573Z,20.80
2023-09-27T07:29:56.903Z,20.84
2023-09-27T07:31:00.255Z,20.88
2023-09-27T07:32:11.462Z,20.91
2023-09-27T07:33:18.765Z,20.95
2023-09-27T07:34:21.534Z,20.98
2023-09-27T07:35:28.679Z,21.01
2023-09-27T07:36:31.061Z,21.04
2023-09-27T07:37:35.834Z,21.07
2023-09-27T07:38:41.079Z,21.11
2023-09-27T07:39:45.052Z,21.16
2023-09-27T07:40:48.430Z,21.18
2023-09-27T07:41:54.041Z,21.21
2023-09-27T07:42:56.259Z,21.23
2023-09-27T07:44:00.151Z,21.26
2023-09-27T07:45:03.108Z,21.30
2023-09-27T07:46:08.527Z,21.32
2023-09-27T07:47:11.572Z,21.35
2023-09-27T07:48:14.969Z,21.38
2023-09-27T07:49:17.173Z,21.40
2023-09-27T07:50:20.902Z,21.42
2023-09-27T07:51:24.234Z,21.44
2023-09-27T07:52:27.435Z,21.47
2023-09-27T07:53:29.798Z,21.52
2023-09-27T07:54:34.574Z,21.56
2023-09-27T07:55:47.672Z,21.60
2023-09-27T07:56:54.543Z,21.64
2023-09-27T07:57:59.404Z,21.69
2023-09-27T07:59:02.644Z,21.72
2023-09-27T08:00:10.803Z,21.77
2023-09-27T08:01:14.150Z,21.81
2023-09-27T08:02:16.352Z,21.83
2023-09-27T08:03:20.949Z,21.86
2023-09-27T08:04:23.480Z,21.90
2023-09-27T08:05:26.908Z,21.94
2023-09-27T08:06:29.207Z,21.98
2023-09-27T08:07:32.405Z,22.01
2023-09-27T08:08:34.628Z,22.03
2023-09-27T08:10:44.747Z,22.09
2023-09-27T08:11:48.221Z,22.12
2023-09-27T08:12:52.111Z,22.15
2023-09-27T08:13:56.034Z,22.18
2023-09-27T08:14:58.316Z,22.21
2023-09-27T08:16:01.435Z,22.23
2023-09-27T08:17:04.258Z,22.25
2023-09-27T08:18:08.165Z,22.28
2023-09-27T08:19:10.595Z,22.31
2023-09-27T08:20:13.449Z,22.33
2023-09-27T08:21:16.769Z,22.36
2023-09-27T08:22:18.958Z,22.39
2023-09-27T08:23:22.174Z,22.42
2023-09-27T08:24:24.601Z,22.45
2023-09-27T08:25:26.832Z,22.48
2023-09-27T08:26:30.474Z,22.51
2023-09-27T08:27:32.903Z,22.55
2023-09-27T08:28:38.829Z,22.58
2023-09-27T08:29:41.141Z,22.62
2023-09-27T08:30:44.484Z,22.65
2023-09-27T08:31:46.773Z,22.68
2023-09-27T08:32:50.331Z,22.71
2023-09-27T08:33:52.626Z,22.75
2023-09-27T08:34:55.961Z,22.78
2023-09-27T08:36:00.511Z,22.82
2023-09-27T08:37:04.779Z,22.86
2023-09-27T08:38:07.266Z,22.89
2023-09-27T08:39:10.829Z,22.92
2023-09-27T08:40:14.668Z,22.95
2023-09-27T08:41:20.097Z,22.98
2023-09-27T08:42:23.526Z,23.02
2023-09-27T08:43:28.194Z,23.05
2023-09-27T08:44:32.510Z,23.09
2023-09-27T08:45:39.523Z,23.11
2023-09-27T08:46:42.210Z,23.14
2023-09-27T08:47:47.540Z,23.18
2023-09-27T08:48:49.922Z,23.22
2023-09-27T08:49:53.943Z,23.26
2023-09-27T08:50:56.653Z,23.30
2023-09-27T08:52:00.187Z,23.34
2023-09-27T08:53:02.568Z,23.37
2023-09-27T08:54:05.711Z,23.40
2023-09-27T08:55:08.743Z,23.43
2023-09-27T08:56:13.285Z,23.46
2023-09-27T08:57:16.067Z,23.49
2023-09-27T08:58:20.314Z,23.52
2023-09-27T08:59:22.885Z,23.54
2023-09-27T09:00:28.353Z,23.57
2023-09-27T09:01:34.270Z,23.60
2023-09-27T09:02:37.919Z,23.63
2023-09-27T09:03:42.370Z,23.66
2023-09-27T09:04:45.708Z,23.68
2023-09-27T09:05:50.168Z,23.70
2023-09-27T09:06:53.720Z,23.71
2023-09-27T09:07:56.869Z,23.73
2023-09-27T09:09:11.642Z,23.75
2023-09-27T09:10:14.845Z,23.78
2023-09-27T09:11:18.907Z,23.80
2023-09-27T09:12:21.122Z,23.83
2023-09-27T09:13:24.466Z,23.86
2023-09-27T09:14:38.838Z,23.89
2023-09-27T09:15:48.328Z,23.93
2023-09-27T09:16:52.505Z,23.96
2023-09-27T09:17:58.987Z,23.99
2023-09-27T09:19:29.290Z,24.02
2023-09-27T09:20:50.631Z,24.05
2023-09-27T09:21:58.330Z,24.08
2023-09-27T09:23:04.920Z,24.10
2023-09-27T09:24:21.563Z,24.12
2023-09-27T09:25:23.989Z,24.15
2023-09-27T09:26:28.910Z,24.17
2023-09-27T09:27:33.716Z,24.21
2023-09-27T09:28:37.675Z,24.24
2023-09-27T09:29:47.212Z,24.27
2023-09-27T09:30:51.787Z,24.32
2023-09-27T09:31:57.875Z,24.36
2023-09-27T09:33:00.242Z,24.40
2023-09-27T09:34:05.573Z,24.44
2023-09-27T09:35:10.325Z,24.48
2023-09-27T09:36:13.545Z,24.52
2023-09-27T09:37:20.119Z,24.56
2023-09-27T09:38:27.771Z,24.60
2023-09-27T09:39:30.053Z,24.63
2023-09-27T09:40:35.287Z,24.66
2023-09-27T09:41:47.611Z,24.70
2023-09-27T09:42:52.406Z,24.75
2023-09-27T09:43:54.874Z,24.78
2023-09-27T09:45:01.470Z,24.82
2023-09-27T09:46:09.351Z,24.85
2023-09-27T09:47:15.532Z,24.91
2023-09-27T09:48:18.765Z,24.96
2023-09-27T09:49:24.119Z,25.00
2023-09-27T09:50:30.736Z,25.04
2023-09-27T09:51:35.573Z,25.07
2023-09-27T09:52:40.258Z,25.12
2023-09-27T09:53:44.155Z,25.16
2023-09-27T09:54:51.232Z,25.20
2023-09-27T09:56:27.878Z,25.24
2023-09-27T09:57:35.075Z,25.30
2023-09-27T09:58:49.920Z,25.35
2023-09-27T10:00:02.304Z,25.39
2023-09-27T10:01:07.661Z,25.43
2023-09-27T10:02:20.707Z,25.44
2023-09-27T10:03:24.554Z,25.45
2023-09-27T10:04:28.041Z,25.47
2023-09-27T10:05:39.520Z,25.48
2023-09-27T10:06:49.220Z,25.50
2023-09-27T10:07:53.704Z,25.54
2023-09-27T10:08:56.035Z,25.56
2023-09-27T10:09:59.381Z,25.58
2023-09-27T10:11:04.969Z,25.62
2023-09-27T10:12:08.415Z,25.65
2023-09-27T10:13:11.596Z,25.67
2023-09-27T10:14:16.816Z,25.70
2023-09-27T10:15:21.756Z,25.73
2023-09-27T10:16:26.782Z,25.77
2023-09-27T10:17:31.259Z,25.80
2023-09-27T10:18:38.947Z,25.84
2023-09-27T10:19:41.254Z,25.86
2023-09-27T10:21:02.482Z,25.88
2023-09-27T10:22:07.360Z,25.88
2023-09-27T10:23:11.943Z,25.89
2023-09-27T10:24:28.299Z,25.91
2023-09-27T10:25:37.011Z,25.93
2023-09-27T10:26:40.636Z,25.93
2023-09-27T10:28:09.577Z,25.94
2023-09-27T10:29:16.883Z,25.97
2023-09-27T10:30:19.351Z,26.01
2023-09-27T10:31:21.606Z,26.04
2023-09-27T10:32:26.476Z,26.06
2023-09-27T10:33:32.573Z,26.09
2023-09-27T10:35:08.974Z,26.13
2023-09-27T10:36:32.319Z,26.15
2023-09-27T10:37:59.991Z,26.19
2023-09-27T10:39:06.384Z,26.23
2023-09-27T10:40:21.988Z,26.26
2023-09-27T10:41:45.989Z,26.29
2023-09-27T10:42:48.658Z,26.33
2023-09-27T10:43:52.802Z,26.36
2023-09-27T10:44:56.919Z,26.38
2023-09-27T10:46:01.296Z,26.41
2023-09-27T10:47:05.542Z,26.45
2023-09-27T10:48:21.168Z,26.48
2023-09-27T10:49:27.812Z,26.52
2023-09-27T10:50:32.294Z,26.55
2023-09-27T10:51:34.843Z,26.58
2023-09-27T10:52:38.190Z,26.60
2023-09-27T10:53:41.359Z,26.62
2023-09-27T10:54:43.777Z,26.65
2023-09-27T10:55:47.156Z,26.69
2023-09-27T10:56:54.046Z,26.70
2023-09-27T10:57:57.916Z,26.71
2023-09-27T10:59:00.193Z,26.73
2023-09-27T11:00:10.737Z,26.76
2023-09-27T11:01:13.174Z,26.79
2023-09-27T11:02:16.343Z,26.81
2023-09-27T11:03:20.439Z,26.81
2023-09-27T11:04:23.487Z,26.83
2023-09-27T11:05:27.188Z,26.85
2023-09-27T11:06:29.938Z,26.87
2023-09-27T11:07:49.262Z,26.87
2023-09-27T11:08:51.651Z,26.88
2023-09-27T11:09:55.188Z,26.88
2023-09-27T11:10:58.710Z,26.89
2023-09-27T11:12:02.091Z,26.89
2023-09-27T11:13:12.061Z,26.92
2023-09-27T11:14:15.680Z,26.94
2023-09-27T11:15:24.135Z,26.97
2023-09-27T11:16:39.010Z,27.00
2023-09-27T11:17:41.331Z,27.02
2023-09-27T11:18:47.112Z,27.04
2023-09-27T11:19:49.804Z,27.07
2023-09-27T11:20:55.408Z,27.09
2023-09-27T11:21:57.640Z,27.13
2023-09-27T11:23:00.963Z,27.15
2023-09-27T11:24:05.431Z,27.16
2023-09-27T11:25:31.990Z,27.19
2023-09-27T11:26:35.912Z,27.24
2023-09-27T11:27:44.098Z,27.26
2023-09-27T11:28:46.457Z,27.29
2023-09-27T11:29:53.051Z,27.31
2023-09-27T11:30:58.202Z,27.33
2023-09-27T11:32:01.730Z,27.34
2023-09-27T11:33:06.739Z,27.35
2023-09-27T11:34:16.372Z,27.38
2023-09-27T11:35:20.114Z,27.42
2023-09-27T11:36:23.349Z,27.45
2023-09-27T11:37:26.352Z,27.47
2023-09-27T11:38:32.254Z,27.49
2023-09-27T11:39:51.328Z,27.51
2023-09-27T11:40:55.180Z,27.53
2023-09-27T11:41:59.113Z,27.55
2023-09-27T11:43:04.111Z,27.57
2023-09-27T11:44:19.202Z,27.59
2023-09-27T11:45:22.409Z,27.61
2023-09-27T11:46:28.385Z,27.63
2023-09-27T11:47:32.778Z,27.65
2023-09-27T11:48:37.720Z,27.67
2023-09-27T11:49:42.534Z,27.67
2023-09-27T11:50:44.931Z,27.67
2023-09-27T11:51:49.124Z,27.70
2023-09-27T11:52:51.626Z,27.73
2023-09-27T11:53:55.499Z,27.74
2023-09-27T11:54:57.954Z,27.76
2023-09-27T11:56:02.313Z,27.78
2023-09-27T11:57:04.522Z,27.81
2023-09-27T11:58:09.576Z,27.83
2023-09-27T11:59:12.006Z,27.85
2023-09-27T12:00:17.155Z,27.87
2023-09-27T12:01:21.047Z,27.89
2023-09-27T12:02:28.194Z,27.91
2023-09-27T12:03:32.915Z,27.93
2023-09-27T12:04:35.560Z,27.96
2023-09-27T12:05:41.216Z,27.97
2023-09-27T12:06:43.794Z,28.00
2023-09-27T12:07:47.137Z,28.02
2023-09-27T12:08:50.034Z,28.03
2023-09-27T12:09:53.281Z,28.05
2023-09-27T12:10:55.544Z,28.06
2023-09-27T12:11:59.208Z,28.07
2023-09-27T12:13:01.893Z,28.08
2023-09-27T12:14:06.822Z,28.10
2023-09-27T12:15:09.645Z,28.12
2023-09-27T12:16:12.949Z,28.13
2023-09-27T12:17:18.769Z,28.14
2023-09-27T12:18:22.795Z,28.15
2023-09-27T12:19:24.947Z,28.16
2023-09-27T12:20:39.756Z,28.18
2023-09-27T12:21:45.321Z,28.20
2023-09-27T12:22:48.531Z,28.22
2023-09-27T12:23:50.795Z,28.23
2023-09-27T12:24:53.975Z,28.25
2023-09-27T12:25:56.984Z,28.27
2023-09-27T12:27:00.811Z,28.28
2023-09-27T12:28:04.672Z,28.29
2023-09-27T12:29:08.603Z,28.31
2023-09-27T12:30:11.495Z,28.33
2023-09-27T12:31:15.696Z,28.35
2023-09-27T12:32:18.986Z,28.34
2023-09-27T12:33:23.035Z,28.35
2023-09-27T12:34:25.569Z,28.37
2023-09-27T12:35:28.876Z,28.38
2023-09-27T12:36:31.007Z,28.38
2023-09-27T12:37:36.624Z,28.37
2023-09-27T12:38:38.922Z,28.36
2023-09-27T12:39:45.210Z,28.36
2023-09-27T12:40:48.020Z,28.37
2023-09-27T12:41:51.334Z,28.38
2023-09-27T12:42:53.643Z,28.39
2023-09-27T12:43:57.573Z,28.39
2023-09-27T12:45:00.199Z,28.39
2023-09-27T12:46:03.747Z,28.40
2023-09-27T12:47:06.063Z,28.43
2023-09-27T12:48:09.369Z,28.45
2023-09-27T12:49:11.700Z,28.47
2023-09-27T12:50:13.908Z,28.47
2023-09-27T12:51:17.385Z,28.48
2023-09-27T12:52:19.614Z,28.52
2023-09-27T12:53:24.200Z,28.52
2023-09-27T12:54:27.272Z,28.52
2023-09-27T12:55:29.426Z,28.51
2023-09-27T12:56:32.672Z,28.50
2023-09-27T12:57:34.931Z,28.49
2023-09-27T12:58:38.065Z,28.47
2023-09-27T12:59:40.304Z,28.47
2023-09-27T13:00:44.197Z,28.49
2023-09-27T13:01:46.504Z,28.50
2023-09-27T13:02:49.900Z,28.52
2023-09-27T13:03:52.539Z,28.51
2023-09-27T13:04:55.801Z,28.50
2023-09-27T13:05:58.898Z,28.49
2023-09-27T13:07:02.115Z,28.51
2023-09-27T13:08:05.482Z,28.52
2023-09-27T13:09:10.969Z,28.53
2023-09-27T13:10:13.493Z,28.53
2023-09-27T13:11:16.663Z,28.50
2023-09-27T13:12:19.102Z,28.49
2023-09-27T13:13:22.514Z,28.48
2023-09-27T13:14:24.758Z,28.46
2023-09-27T13:15:28.045Z,28.44
2023-09-27T13:16:30.326Z,28.44
2023-09-27T13:17:33.668Z,28.45
2023-09-27T13:18:35.890Z,28.45
2023-09-27T13:19:39.060Z,28.45
2023-09-27T13:20:41.384Z,28.46
2023-09-27T13:21:44.744Z,28.46
2023-09-27T13:22:48.513Z,28.46
2023-09-27T13:23:51.706Z,28.47
2023-09-27T13:24:55.146Z,28.47
2023-09-27T13:25:58.437Z,28.47
2023-09-27T13:27:00.751Z,28.49
2023-09-27T13:28:04.255Z,28.52
2023-09-27T13:29:06.681Z,28.53
2023-09-27T13:30:18.651Z,28.54
2023-09-27T13:31:35.873Z,28.56
2023-09-27T13:32:38.169Z,28.61
2023-09-27T13:33:43.016Z,28.68
2023-09-27T13:34:48.998Z,28.71
2023-09-27T13:35:52.897Z,28.72
2023-09-27T13:36:55.606Z,28.72
2023-09-27T13:37:58.799Z,28.74
2023-09-27T13:39:01.064Z,28.75
2023-09-27T13:40:06.497Z,28.76
2023-09-27T13:41:09.674Z,28.80
2023-09-27T13:42:11.889Z,28.84
2023-09-27T13:43:16.012Z,28.86
2023-09-27T13:44:18.292Z,28.89
2023-09-27T13:45:21.802Z,28.91
2023-09-27T13:46:24.118Z,28.93
2023-09-27T13:47:26.297Z,28.95
2023-09-27T13:48:29.535Z,28.96